sensor_id;sensor_type;location;lat;lon;timestamp;pressure;altitude;pressure_sealevel;temperature;humidity
34482;BME280;20720;48.886;9.388;2023-07-31T00:02:16;98429.41;;;21.16;84.69
34482;BME280;20720;48.886;9.388;2023-07-31T00:04:42;98432.09;;;21.21;86.43
34482;BME280;20720;48.886;9.388;2023-07-31T00:07:07;98426.75;;;21.41;86.00
34482;BME280;20720;48.886;9.388;2023-07-31T00:09:33;98428.63;;;21.31;86.17
34482;BME280;20720;48.886;9.388;2023-07-31T00:11:58;98425.09;;;21.00;87.81
34482;BME280;20720;48.886;9.388;2023-07-31T00:14:24;98427.78;;;21.10;87.05
34482;BME280;20720;48.886;9.388;2023-07-31T00:16:49;98419.78;;;21.40;85.51
34482;BME280;20720;48.886;9.388;2023-07-31T00:19:14;98422.34;;;20.90;88.60
34482;BME280;20720;48.886;9.388;2023-07-31T00:21:39;98419.75;;;21.00;89.34
34482;BME280;20720;48.886;9.388;2023-07-31T00:24:05;98419.63;;;20.70;89.96
34482;BME280;20720;48.886;9.388;2023-07-31T00:26:30;98426.19;;;21.04;87.55
34482;BME280;20720;48.886;9.388;2023-07-31T00:28:55;98422.88;;;20.87;87.42
34482;BME280;20720;48.886;9.388;2023-07-31T00:31:21;98422.44;;;21.25;85.66
34482;BME280;20720;48.886;9.388;2023-07-31T00:33:46;98422.44;;;21.15;86.13
34482;BME280;20720;48.886;9.388;2023-07-31T00:36:11;98415.50;;;21.14;86.16
34482;BME280;20720;48.886;9.388;2023-07-31T00:38:36;98419.34;;;20.67;87.74
34482;BME280;20720;48.886;9.388;2023-07-31T00:41:01;98422.63;;;20.89;86.87
34482;BME280;20720;48.886;9.388;2023-07-31T00:43:27;98426.88;;;20.85;88.27
34482;BME280;20720;48.886;9.388;2023-07-31T00:45:52;98426.91;;;20.95;87.21
34482;BME280;20720;48.886;9.388;2023-07-31T00:48:18;98425.84;;;20.91;86.96
34482;BME280;20720;48.886;9.388;2023-07-31T00:50:43;98434.56;;;20.66;89.06
34482;BME280;20720;48.886;9.388;2023-07-31T00:53:08;98437.19;;;20.56;89.16
34482;BME280;20720;48.886;9.388;2023-07-31T00:55:34;98429.34;;;20.34;90.61
34482;BME280;20720;48.886;9.388;2023-07-31T00:57:59;98430.16;;;20.40;89.91
34482;BME280;20720;48.886;9.388;2023-07-31T01:00:25;98429.72;;;20.11;92.56
34482;BME280;20720;48.886;9.388;2023-07-31T01:02:51;98429.00;;;20.21;91.00
34482;BME280;20720;48.886;9.388;2023-07-31T01:05:18;98426.66;;;20.91;87.93
34482;BME280;20720;48.886;9.388;2023-07-31T01:08:12;98429.16;;;20.56;88.88
34482;BME280;20720;48.886;9.388;2023-07-31T01:10:48;98423.88;;;20.71;88.83
34482;BME280;20720;48.886;9.388;2023-07-31T01:13:14;98425.63;;;21.12;86.36
34482;BME280;20720;48.886;9.388;2023-07-31T01:15:40;98427.25;;;21.13;85.81
34482;BME280;20720;48.886;9.388;2023-07-31T01:18:05;98416.53;;;21.08;87.76
34482;BME280;20720;48.886;9.388;2023-07-31T01:20:31;98410.97;;;20.48;94.85
34482;BME280;20720;48.886;9.388;2023-07-31T01:26:12;98415.56;;;20.57;96.18
34482;BME280;20720;48.886;9.388;2023-07-31T01:31:20;98400.75;;;20.25;95.08
34482;BME280;20720;48.886;9.388;2023-07-31T01:33:48;98399.25;;;20.07;100.00
34482;BME280;20720;48.886;9.388;2023-07-31T01:36:14;98398.34;;;19.55;100.00
34482;BME280;20720;48.886;9.388;2023-07-31T01:38:39;98388.75;;;19.91;100.00
34482;BME280;20720;48.886;9.388;2023-07-31T01:41:05;98386.94;;;19.96;100.00
34482;BME280;20720;48.886;9.388;2023-07-31T01:43:30;98373.25;;;19.83;100.00
34482;BME280;20720;48.886;9.388;2023-07-31T01:45:56;98370.00;;;19.76;100.00
34482;BME280;20720;48.886;9.388;2023-07-31T01:48:21;98376.25;;;19.96;100.00
34482;BME280;20720;48.886;9.388;2023-07-31T01:50:46;98374.34;;;19.87;100.00
34482;BME280;20720;48.886;9.388;2023-07-31T01:53:11;98379.41;;;19.88;100.00
34482;BME280;20720;48.886;9.388;2023-07-31T01:55:38;98384.78;;;19.56;100.00
34482;BME280;20720;48.886;9.388;2023-07-31T01:58:03;98384.69;;;20.20;97.92
34482;BME280;20720;48.886;9.388;2023-07-31T02:00:28;98380.97;;;20.26;100.00
34482;BME280;20720;48.886;9.388;2023-07-31T02:02:54;98374.28;;;20.18;100.00
34482;BME280;20720;48.886;9.388;2023-07-31T02:05:19;98373.47;;;20.18;99.73
34482;BME280;20720;48.886;9.388;2023-07-31T02:07:44;98367.16;;;20.34;97.65
34482;BME280;20720;48.886;9.388;2023-07-31T02:10:09;98374.34;;;19.87;98.51
34482;BME280;20720;48.886;9.388;2023-07-31T02:12:35;98363.78;;;20.12;98.97
34482;BME280;20720;48.886;9.388;2023-07-31T02:15:00;98368.78;;;20.45;95.17
34482;BME280;20720;48.886;9.388;2023-07-31T02:17:25;98354.28;;;20.26;95.87
34482;BME280;20720;48.886;9.388;2023-07-31T02:19:50;98353.31;;;20.52;94.94
34482;BME280;20720;48.886;9.388;2023-07-31T02:22:16;98356.84;;;20.63;93.88
34482;BME280;20720;48.886;9.388;2023-07-31T02:24:41;98351.19;;;20.49;94.48
34482;BME280;20720;48.886;9.388;2023-07-31T02:27:06;98352.41;;;20.21;95.09
34482;BME280;20720;48.886;9.388;2023-07-31T02:29:32;98348.84;;;20.06;96.97
34482;BME280;20720;48.886;9.388;2023-07-31T02:31:57;98354.78;;;20.18;95.55
34482;BME280;20720;48.886;9.388;2023-07-31T02:34:22;98344.59;;;20.10;98.79
34482;BME280;20720;48.886;9.388;2023-07-31T02:36:47;98342.16;;;20.08;98.26
34482;BME280;20720;48.886;9.388;2023-07-31T02:39:13;98342.03;;;20.35;95.71
34482;BME280;20720;48.886;9.388;2023-07-31T02:41:38;98347.88;;;20.22;95.52
34482;BME280;20720;48.886;9.388;2023-07-31T02:44:03;98337.25;;;20.32;95.16
34482;BME280;20720;48.886;9.388;2023-07-31T02:46:29;98335.13;;;20.34;95.59
34482;BME280;20720;48.886;9.388;2023-07-31T02:48:54;98329.56;;;19.99;98.46
34482;BME280;20720;48.886;9.388;2023-07-31T02:51:19;98327.97;;;19.93;98.35
34482;BME280;20720;48.886;9.388;2023-07-31T02:53:46;98326.84;;;20.35;96.01
34482;BME280;20720;48.886;9.388;2023-07-31T02:56:12;98320.69;;;20.30;96.64
34482;BME280;20720;48.886;9.388;2023-07-31T02:58:38;98315.59;;;19.77;99.70
34482;BME280;20720;48.886;9.388;2023-07-31T03:01:03;98320.66;;;19.36;100.00
34482;BME280;20720;48.886;9.388;2023-07-31T03:03:28;98317.84;;;19.95;100.00
34482;BME280;20720;48.886;9.388;2023-07-31T03:05:53;98320.72;;;19.88;98.11
34482;BME280;20720;48.886;9.388;2023-07-31T03:08:19;98314.31;;;19.84;99.31
34482;BME280;20720;48.886;9.388;2023-07-31T03:10:45;98316.75;;;19.96;98.02
34482;BME280;20720;48.886;9.388;2023-07-31T03:13:10;98318.53;;;19.80;98.65
34482;BME280;20720;48.886;9.388;2023-07-31T03:15:35;98326.16;;;19.61;100.00
34482;BME280;20720;48.886;9.388;2023-07-31T03:18:00;98326.09;;;19.51;100.00
34482;BME280;20720;48.886;9.388;2023-07-31T03:20:26;98325.06;;;19.57;100.00
34482;BME280;20720;48.886;9.388;2023-07-31T03:22:51;98322.53;;;19.36;100.00
34482;BME280;20720;48.886;9.388;2023-07-31T03:25:16;98335.34;;;19.81;100.00
34482;BME280;20720;48.886;9.388;2023-07-31T03:27:41;98332.06;;;19.68;100.00
34482;BME280;20720;48.886;9.388;2023-07-31T03:30:07;98331.66;;;19.45;100.00
34482;BME280;20720;48.886;9.388;2023-07-31T03:32:32;98324.22;;;19.94;98.38
34482;BME280;20720;48.886;9.388;2023-07-31T03:34:58;98323.50;;;19.61;98.80
34482;BME280;20720;48.886;9.388;2023-07-31T03:37:23;98323.41;;;19.46;100.00
34482;BME280;20720;48.886;9.388;2023-07-31T03:39:48;98327.72;;;19.57;100.00
34482;BME280;20720;48.886;9.388;2023-07-31T03:42:14;98326.53;;;19.38;100.00
34482;BME280;20720;48.886;9.388;2023-07-31T03:44:39;98334.38;;;19.23;100.00
34482;BME280;20720;48.886;9.388;2023-07-31T03:47:05;98334.22;;;19.35;100.00
34482;BME280;20720;48.886;9.388;2023-07-31T03:49:30;98329.91;;;19.60;99.71
34482;BME280;20720;48.886;9.388;2023-07-31T03:51:55;98331.63;;;20.28;94.18
34482;BME280;20720;48.886;9.388;2023-07-31T03:54:21;98336.50;;;19.95;95.38
34482;BME280;20720;48.886;9.388;2023-07-31T03:56:46;98329.16;;;19.33;99.23
34482;BME280;20720;48.886;9.388;2023-07-31T03:59:11;98326.41;;;20.07;95.10
34482;BME280;20720;48.886;9.388;2023-07-31T04:01:36;98333.13;;;19.62;98.37
34482;BME280;20720;48.886;9.388;2023-07-31T04:04:02;98336.72;;;19.46;100.00
34482;BME280;20720;48.886;9.388;2023-07-31T04:06:27;98335.81;;;19.67;99.37
34482;BME280;20720;48.886;9.388;2023-07-31T04:08:52;98329.91;;;19.60;98.43
34482;BME280;20720;48.886;9.388;2023-07-31T04:11:18;98324.75;;;19.91;97.72
34482;BME280;20720;48.886;9.388;2023-07-31T04:13:43;98331.69;;;19.92;95.84
34482;BME280;20720;48.886;9.388;2023-07-31T04:16:08;98326.38;;;19.97;95.67
34482;BME280;20720;48.886;9.388;2023-07-31T04:18:33;98325.22;;;19.78;97.54
34482;BME280;20720;48.886;9.388;2023-07-31T04:20:59;98325.25;;;19.88;96.70
34482;BME280;20720;48.886;9.388;2023-07-31T04:23:26;98328.84;;;19.66;97.23
34482;BME280;20720;48.886;9.388;2023-07-31T04:25:51;98317.56;;;20.53;93.18
34482;BME280;20720;48.886;9.388;2023-07-31T04:28:16;98324.03;;;20.77;90.74
34482;BME280;20720;48.886;9.388;2023-07-31T04:30:42;98324.75;;;20.47;90.66
34482;BME280;20720;48.886;9.388;2023-07-31T04:33:07;98321.88;;;20.02;94.85
34482;BME280;20720;48.886;9.388;2023-07-31T04:35:32;98317.44;;;19.76;96.61
34482;BME280;20720;48.886;9.388;2023-07-31T04:37:58;98317.25;;;19.88;94.46
34482;BME280;20720;48.886;9.388;2023-07-31T04:40:23;98313.34;;;20.00;95.09
34482;BME280;20720;48.886;9.388;2023-07-31T04:42:48;98314.16;;;20.06;93.11
34482;BME280;20720;48.886;9.388;2023-07-31T04:45:14;98311.03;;;20.19;93.56
34482;BME280;20720;48.886;9.388;2023-07-31T04:47:39;98321.91;;;20.94;88.76
34482;BME280;20720;48.886;9.388;2023-07-31T04:50:05;98326.97;;;20.09;93.17
34482;BME280;20720;48.886;9.388;2023-07-31T04:52:30;98316.72;;;20.32;92.81
34482;BME280;20720;48.886;9.388;2023-07-31T04:54:56;98322.09;;;20.52;91.61
34482;BME280;20720;48.886;9.388;2023-07-31T04:57:21;98323.69;;;20.53;90.37
34482;BME280;20720;48.886;9.388;2023-07-31T04:59:46;98317.91;;;20.97;88.29
34482;BME280;20720;48.886;9.388;2023-07-31T05:02:12;98321.34;;;20.82;87.57
34482;BME280;20720;48.886;9.388;2023-07-31T05:04:37;98315.50;;;20.95;89.44
34482;BME280;20720;48.886;9.388;2023-07-31T05:07:02;98312.34;;;21.28;86.74
34482;BME280;20720;48.886;9.388;2023-07-31T05:09:28;98308.06;;;21.12;87.59
34482;BME280;20720;48.886;9.388;2023-07-31T05:11:53;98306.69;;;21.60;85.22
34482;BME280;20720;48.886;9.388;2023-07-31T05:14:18;98312.56;;;21.87;82.27
34482;BME280;20720;48.886;9.388;2023-07-31T05:16:45;98307.22;;;21.52;84.58
34482;BME280;20720;48.886;9.388;2023-07-31T05:19:10;98314.88;;;22.14;81.37
34482;BME280;20720;48.886;9.388;2023-07-31T05:21:35;98314.41;;;21.92;83.09
34482;BME280;20720;48.886;9.388;2023-07-31T05:24:00;98308.53;;;21.70;85.06
34482;BME280;20720;48.886;9.388;2023-07-31T05:26:26;98303.56;;;22.32;80.90
34482;BME280;20720;48.886;9.388;2023-07-31T05:28:51;98302.09;;;21.96;83.24
34482;BME280;20720;48.886;9.388;2023-07-31T05:31:16;98295.44;;;22.47;81.26
34482;BME280;20720;48.886;9.388;2023-07-31T05:33:41;98296.81;;;22.39;81.27
34482;BME280;20720;48.886;9.388;2023-07-31T05:36:07;98300.78;;;22.52;81.06
34482;BME280;20720;48.886;9.388;2023-07-31T05:38:32;98306.72;;;23.26;77.96
34482;BME280;20720;48.886;9.388;2023-07-31T05:40:57;98309.88;;;22.61;80.43
34482;BME280;20720;48.886;9.388;2023-07-31T05:43:22;98305.31;;;23.00;78.26
34482;BME280;20720;48.886;9.388;2023-07-31T05:45:48;98314.88;;;23.50;74.96
34482;BME280;20720;48.886;9.388;2023-07-31T05:48:13;98309.16;;;22.35;79.81
34482;BME280;20720;48.886;9.388;2023-07-31T05:50:38;98309.03;;;22.02;80.09
34482;BME280;20720;48.886;9.388;2023-07-31T05:53:05;98301.94;;;23.18;77.46
34482;BME280;20720;48.886;9.388;2023-07-31T05:55:30;98314.69;;;22.59;77.34
34482;BME280;20720;48.886;9.388;2023-07-31T05:57:56;98307.91;;;22.18;79.40
34482;BME280;20720;48.886;9.388;2023-07-31T06:00:21;98306.03;;;22.13;78.63
34482;BME280;20720;48.886;9.388;2023-07-31T06:02:47;98297.88;;;21.80;82.39
34482;BME280;20720;48.886;9.388;2023-07-31T06:05:13;98298.41;;;21.57;82.42
34482;BME280;20720;48.886;9.388;2023-07-31T06:07:38;98298.44;;;21.41;83.77
34482;BME280;20720;48.886;9.388;2023-07-31T06:10:04;98284.47;;;21.85;81.42
34482;BME280;20720;48.886;9.388;2023-07-31T06:12:33;98293.94;;;22.31;80.51
34482;BME280;20720;48.886;9.388;2023-07-31T06:14:59;98292.13;;;22.70;79.24
34482;BME280;20720;48.886;9.388;2023-07-31T06:17:24;98300.69;;;22.72;77.79
34482;BME280;20720;48.886;9.388;2023-07-31T06:19:51;98298.44;;;22.89;77.65
34482;BME280;20720;48.886;9.388;2023-07-31T06:22:16;98297.59;;;22.45;80.94
34482;BME280;20720;48.886;9.388;2023-07-31T06:24:41;98295.56;;;23.14;77.66
34482;BME280;20720;48.886;9.388;2023-07-31T06:27:06;98297.72;;;23.75;76.35
34482;BME280;20720;48.886;9.388;2023-07-31T06:29:32;98295.22;;;23.21;77.80
34482;BME280;20720;48.886;9.388;2023-07-31T06:31:58;98293.25;;;24.36;73.41
34482;BME280;20720;48.886;9.388;2023-07-31T06:34:24;98301.25;;;23.42;76.13
34482;BME280;20720;48.886;9.388;2023-07-31T06:36:49;98302.31;;;22.68;79.89
34482;BME280;20720;48.886;9.388;2023-07-31T06:39:14;98306.38;;;23.38;77.32
34482;BME280;20720;48.886;9.388;2023-07-31T06:41:40;98306.94;;;22.96;76.52
34482;BME280;20720;48.886;9.388;2023-07-31T06:44:05;98303.75;;;24.14;73.52
34482;BME280;20720;48.886;9.388;2023-07-31T06:46:30;98300.59;;;23.55;74.01
34482;BME280;20720;48.886;9.388;2023-07-31T06:48:56;98301.75;;;23.72;74.47
34482;BME280;20720;48.886;9.388;2023-07-31T06:51:21;98300.28;;;25.25;70.13
34482;BME280;20720;48.886;9.388;2023-07-31T06:53:46;98301.63;;;23.59;73.50
34482;BME280;20720;48.886;9.388;2023-07-31T06:56:12;98305.78;;;23.07;76.79
34482;BME280;20720;48.886;9.388;2023-07-31T06:58:37;98309.09;;;22.99;76.35
34482;BME280;20720;48.886;9.388;2023-07-31T07:01:02;98307.41;;;23.71;75.25
34482;BME280;20720;48.886;9.388;2023-07-31T07:03:28;98312.31;;;24.16;72.93
34482;BME280;20720;48.886;9.388;2023-07-31T07:05:53;98302.88;;;23.43;73.97
34482;BME280;20720;48.886;9.388;2023-07-31T07:08:18;98313.16;;;24.77;69.80
34482;BME280;20720;48.886;9.388;2023-07-31T07:10:43;98308.66;;;26.15;65.37
34482;BME280;20720;48.886;9.388;2023-07-31T07:13:09;98306.81;;;25.97;65.41
34482;BME280;20720;48.886;9.388;2023-07-31T07:15:34;98301.41;;;24.50;69.48
34482;BME280;20720;48.886;9.388;2023-07-31T07:18:00;98295.53;;;24.00;71.95
34482;BME280;20720;48.886;9.388;2023-07-31T07:20:25;98303.84;;;24.04;68.30
34482;BME280;20720;48.886;9.388;2023-07-31T07:22:50;98304.56;;;24.75;69.21
34482;BME280;20720;48.886;9.388;2023-07-31T07:25:16;98304.06;;;24.31;68.88
34482;BME280;20720;48.886;9.388;2023-07-31T07:27:41;98296.53;;;24.33;69.29
34482;BME280;20720;48.886;9.388;2023-07-31T07:30:06;98293.44;;;25.33;67.56
34482;BME280;20720;48.886;9.388;2023-07-31T07:32:32;98291.75;;;25.04;67.31
34482;BME280;20720;48.886;9.388;2023-07-31T07:34:57;98290.41;;;24.27;68.31
34482;BME280;20720;48.886;9.388;2023-07-31T07:37:23;98287.75;;;24.04;69.37
34482;BME280;20720;48.886;9.388;2023-07-31T07:39:48;98285.47;;;24.16;68.41
34482;BME280;20720;48.886;9.388;2023-07-31T07:42:13;98294.78;;;25.16;66.82
34482;BME280;20720;48.886;9.388;2023-07-31T07:44:38;98297.06;;;24.91;65.42
34482;BME280;20720;48.886;9.388;2023-07-31T07:47:04;98288.34;;;24.43;68.92
34482;BME280;20720;48.886;9.388;2023-07-31T07:49:31;98288.94;;;24.96;66.93
34482;BME280;20720;48.886;9.388;2023-07-31T07:51:56;98288.53;;;24.28;67.42
34482;BME280;20720;48.886;9.388;2023-07-31T07:54:21;98290.03;;;24.34;67.99
34482;BME280;20720;48.886;9.388;2023-07-31T07:56:47;98286.69;;;24.84;66.38
34482;BME280;20720;48.886;9.388;2023-07-31T07:59:12;98288.47;;;25.85;63.81
34482;BME280;20720;48.886;9.388;2023-07-31T08:01:37;98286.69;;;25.81;62.97
34482;BME280;20720;48.886;9.388;2023-07-31T08:04:03;98289.06;;;25.37;65.03
34482;BME280;20720;48.886;9.388;2023-07-31T08:06:28;98290.31;;;26.66;60.77
34482;BME280;20720;48.886;9.388;2023-07-31T08:08:55;98285.59;;;26.36;60.18
34482;BME280;20720;48.886;9.388;2023-07-31T08:11:20;98279.22;;;27.48;56.72
34482;BME280;20720;48.886;9.388;2023-07-31T08:13:46;98271.75;;;27.01;57.28
34482;BME280;20720;48.886;9.388;2023-07-31T08:16:11;98264.25;;;26.13;62.49
34482;BME280;20720;48.886;9.388;2023-07-31T08:18:36;98269.47;;;26.58;59.48
34482;BME280;20720;48.886;9.388;2023-07-31T08:21:02;98274.78;;;26.50;57.32
34482;BME280;20720;48.886;9.388;2023-07-31T08:23:28;98277.53;;;26.09;59.81
34482;BME280;20720;48.886;9.388;2023-07-31T08:25:53;98274.66;;;26.68;59.30
34482;BME280;20720;48.886;9.388;2023-07-31T08:28:18;98261.84;;;26.38;59.46
34482;BME280;20720;48.886;9.388;2023-07-31T08:30:43;98271.00;;;26.37;58.38
34482;BME280;20720;48.886;9.388;2023-07-31T08:33:09;98268.97;;;26.56;57.07
34482;BME280;20720;48.886;9.388;2023-07-31T08:35:34;98259.94;;;26.25;59.28
34482;BME280;20720;48.886;9.388;2023-07-31T08:37:59;98256.25;;;25.94;59.06
34482;BME280;20720;48.886;9.388;2023-07-31T08:40:25;98253.34;;;26.80;56.72
34482;BME280;20720;48.886;9.388;2023-07-31T08:42:54;98256.16;;;25.99;59.54
34482;BME280;20720;48.886;9.388;2023-07-31T08:45:22;98257.16;;;27.46;56.97
34482;BME280;20720;48.886;9.388;2023-07-31T08:47:50;98248.09;;;26.26;58.26
34482;BME280;20720;48.886;9.388;2023-07-31T08:50:17;98245.06;;;26.41;59.14
34482;BME280;20720;48.886;9.388;2023-07-31T08:52:43;98247.25;;;26.39;59.06
34482;BME280;20720;48.886;9.388;2023-07-31T08:55:08;98246.50;;;25.98;59.72
34482;BME280;20720;48.886;9.388;2023-07-31T08:57:36;98238.16;;;26.84;58.00
34482;BME280;20720;48.886;9.388;2023-07-31T09:00:07;98252.78;;;26.21;57.79
34482;BME280;20720;48.886;9.388;2023-07-31T09:02:48;98248.06;;;26.97;56.56
34482;BME280;20720;48.886;9.388;2023-07-31T09:05:16;98256.31;;;26.92;58.12
34482;BME280;20720;48.886;9.388;2023-07-31T09:07:44;98256.41;;;27.10;56.51
34482;BME280;20720;48.886;9.388;2023-07-31T09:10:11;98233.91;;;26.34;57.44
34482;BME280;20720;48.886;9.388;2023-07-31T09:12:38;98231.72;;;26.94;56.48
34482;BME280;20720;48.886;9.388;2023-07-31T09:15:04;98227.22;;;26.18;59.29
34482;BME280;20720;48.886;9.388;2023-07-31T09:17:34;98217.28;;;26.41;57.90
34482;BME280;20720;48.886;9.388;2023-07-31T09:22:42;98223.94;;;25.67;60.55
34482;BME280;20720;48.886;9.388;2023-07-31T09:25:25;98231.63;;;26.50;58.80
34482;BME280;20720;48.886;9.388;2023-07-31T09:30:20;98233.09;;;25.39;62.61
34482;BME280;20720;48.886;9.388;2023-07-31T09:32:46;98235.44;;;24.94;63.82
34482;BME280;20720;48.886;9.388;2023-07-31T09:35:20;98228.97;;;25.28;63.19
34482;BME280;20720;48.886;9.388;2023-07-31T09:37:54;98231.56;;;25.00;63.06
34482;BME280;20720;48.886;9.388;2023-07-31T09:40:36;98226.69;;;25.02;63.56
34482;BME280;20720;48.886;9.388;2023-07-31T09:43:21;98224.53;;;26.18;60.87
34482;BME280;20720;48.886;9.388;2023-07-31T09:45:47;98221.28;;;27.01;58.64
34482;BME280;20720;48.886;9.388;2023-07-31T09:48:15;98204.13;;;27.28;58.29
34482;BME280;20720;48.886;9.388;2023-07-31T09:50:42;98196.91;;;28.84;52.74
34482;BME280;20720;48.886;9.388;2023-07-31T09:53:08;98191.03;;;26.46;56.11
34482;BME280;20720;48.886;9.388;2023-07-31T09:55:34;98190.81;;;26.56;59.83
34482;BME280;20720;48.886;9.388;2023-07-31T09:58:03;98191.75;;;27.27;55.90
34482;BME280;20720;48.886;9.388;2023-07-31T10:00:29;98181.84;;;27.14;54.96
34482;BME280;20720;48.886;9.388;2023-07-31T10:02:58;98185.63;;;26.11;58.43
34482;BME280;20720;48.886;9.388;2023-07-31T10:05:30;98183.44;;;26.48;58.47
34482;BME280;20720;48.886;9.388;2023-07-31T10:07:56;98170.84;;;26.79;56.50
34482;BME280;20720;48.886;9.388;2023-07-31T10:10:22;98169.50;;;28.08;54.28
34482;BME280;20720;48.886;9.388;2023-07-31T10:12:49;98177.03;;;28.54;53.65
34482;BME280;20720;48.886;9.388;2023-07-31T10:15:15;98169.03;;;27.50;57.06
34482;BME280;20720;48.886;9.388;2023-07-31T10:17:41;98164.84;;;27.13;55.33
34482;BME280;20720;48.886;9.388;2023-07-31T10:20:07;98156.81;;;28.34;52.97
34482;BME280;20720;48.886;9.388;2023-07-31T10:22:33;98173.66;;;28.14;54.25
34482;BME280;20720;48.886;9.388;2023-07-31T10:24:59;98170.97;;;28.40;52.16
34482;BME280;20720;48.886;9.388;2023-07-31T10:27:25;98167.84;;;27.34;54.11
34482;BME280;20720;48.886;9.388;2023-07-31T10:29:52;98172.88;;;27.05;56.18
34482;BME280;20720;48.886;9.388;2023-07-31T10:32:19;98164.25;;;27.47;53.90
34482;BME280;20720;48.886;9.388;2023-07-31T10:34:46;98166.63;;;28.99;51.65
34482;BME280;20720;48.886;9.388;2023-07-31T10:37:20;98156.47;;;28.10;54.48
34482;BME280;20720;48.886;9.388;2023-07-31T10:39:58;98144.63;;;27.72;55.30
34482;BME280;20720;48.886;9.388;2023-07-31T10:42:35;98141.63;;;29.48;50.58
34482;BME280;20720;48.886;9.388;2023-07-31T10:45:04;98136.84;;;27.79;54.21
34482;BME280;20720;48.886;9.388;2023-07-31T10:47:29;98142.31;;;28.82;52.22
34482;BME280;20720;48.886;9.388;2023-07-31T10:50:18;98141.78;;;26.98;55.64
34482;BME280;20720;48.886;9.388;2023-07-31T10:53:02;98148.41;;;25.99;57.59
34482;BME280;20720;48.886;9.388;2023-07-31T10:55:32;98150.47;;;26.29;59.27
34482;BME280;20720;48.886;9.388;2023-07-31T10:58:05;98146.16;;;27.56;55.80
34482;BME280;20720;48.886;9.388;2023-07-31T11:00:31;98143.94;;;28.31;54.42
34482;BME280;20720;48.886;9.388;2023-07-31T11:03:04;98147.59;;;27.23;56.62
34482;BME280;20720;48.886;9.388;2023-07-31T11:05:49;98146.31;;;27.20;56.44
34482;BME280;20720;48.886;9.388;2023-07-31T11:08:18;98150.78;;;27.25;56.69
34482;BME280;20720;48.886;9.388;2023-07-31T11:10:45;98145.19;;;28.42;52.87
34482;BME280;20720;48.886;9.388;2023-07-31T11:13:11;98127.69;;;27.41;54.76
34482;BME280;20720;48.886;9.388;2023-07-31T11:15:37;98125.88;;;27.67;54.50
34482;BME280;20720;48.886;9.388;2023-07-31T11:18:02;98124.34;;;28.00;55.90
34482;BME280;20720;48.886;9.388;2023-07-31T11:20:36;98132.19;;;29.54;50.79
34482;BME280;20720;48.886;9.388;2023-07-31T11:23:02;98139.13;;;30.01;49.73
34482;BME280;20720;48.886;9.388;2023-07-31T11:25:30;98133.31;;;31.42;46.50
34482;BME280;20720;48.886;9.388;2023-07-31T11:27:56;98125.59;;;30.13;47.51
34482;BME280;20720;48.886;9.388;2023-07-31T11:30:22;98117.84;;;28.61;50.99
34482;BME280;20720;48.886;9.388;2023-07-31T11:32:47;98121.63;;;28.86;50.60
34482;BME280;20720;48.886;9.388;2023-07-31T11:35:12;98125.69;;;29.00;51.04
34482;BME280;20720;48.886;9.388;2023-07-31T11:37:39;98122.28;;;28.65;50.69
34482;BME280;20720;48.886;9.388;2023-07-31T11:40:05;98123.22;;;29.71;49.73
34482;BME280;20720;48.886;9.388;2023-07-31T11:42:30;98118.28;;;28.71;52.50
34482;BME280;20720;48.886;9.388;2023-07-31T11:44:56;98111.88;;;29.39;49.79
34482;BME280;20720;48.886;9.388;2023-07-31T11:47:21;98106.78;;;29.67;50.28
34482;BME280;20720;48.886;9.388;2023-07-31T11:49:47;98092.19;;;28.84;51.59
34482;BME280;20720;48.886;9.388;2023-07-31T11:52:14;98103.19;;;27.29;54.86
34482;BME280;20720;48.886;9.388;2023-07-31T11:54:40;98100.53;;;28.02;54.15
34482;BME280;20720;48.886;9.388;2023-07-31T11:57:06;98086.94;;;27.20;54.38
34482;BME280;20720;48.886;9.388;2023-07-31T11:59:32;98090.28;;;27.65;53.14
34482;BME280;20720;48.886;9.388;2023-07-31T12:01:57;98093.13;;;27.60;54.56
34482;BME280;20720;48.886;9.388;2023-07-31T12:04:23;98077.75;;;28.46;52.30
34482;BME280;20720;48.886;9.388;2023-07-31T12:06:49;98077.78;;;29.01;51.64
34482;BME280;20720;48.886;9.388;2023-07-31T12:09:15;98074.09;;;28.33;53.83
34482;BME280;20720;48.886;9.388;2023-07-31T12:11:44;98070.63;;;28.07;53.95
34482;BME280;20720;48.886;9.388;2023-07-31T12:14:27;98061.84;;;27.84;54.68
34482;BME280;20720;48.886;9.388;2023-07-31T12:17:00;98082.03;;;27.87;54.58
34482;BME280;20720;48.886;9.388;2023-07-31T12:19:26;98068.97;;;28.74;51.78
34482;BME280;20720;48.886;9.388;2023-07-31T12:21:59;98067.31;;;28.10;53.32
34482;BME280;20720;48.886;9.388;2023-07-31T12:24:26;98059.88;;;26.94;56.05
34482;BME280;20720;48.886;9.388;2023-07-31T12:26:51;98056.25;;;26.68;56.90
34482;BME280;20720;48.886;9.388;2023-07-31T12:29:17;98046.38;;;26.11;58.95
34482;BME280;20720;48.886;9.388;2023-07-31T12:31:43;98059.16;;;26.05;60.14
34482;BME280;20720;48.886;9.388;2023-07-31T12:34:16;98053.44;;;26.73;58.13
34482;BME280;20720;48.886;9.388;2023-07-31T12:36:42;98047.22;;;27.04;57.83
34482;BME280;20720;48.886;9.388;2023-07-31T12:39:08;98046.06;;;26.65;59.52
34482;BME280;20720;48.886;9.388;2023-07-31T12:41:33;98049.97;;;26.51;59.91
34482;BME280;20720;48.886;9.388;2023-07-31T12:43:59;98041.41;;;26.79;58.32
34482;BME280;20720;48.886;9.388;2023-07-31T12:46:24;98032.84;;;26.77;58.97
34482;BME280;20720;48.886;9.388;2023-07-31T12:48:49;98031.78;;;27.52;56.48
34482;BME280;20720;48.886;9.388;2023-07-31T12:51:15;98026.09;;;27.53;56.65
34482;BME280;20720;48.886;9.388;2023-07-31T12:53:40;98020.06;;;28.25;56.45
34482;BME280;20720;48.886;9.388;2023-07-31T12:56:05;98015.81;;;27.08;57.33
34482;BME280;20720;48.886;9.388;2023-07-31T12:58:30;98018.13;;;28.42;54.92
34482;BME280;20720;48.886;9.388;2023-07-31T13:00:56;98007.06;;;27.50;57.15
34482;BME280;20720;48.886;9.388;2023-07-31T13:03:21;98014.25;;;27.24;57.52
34482;BME280;20720;48.886;9.388;2023-07-31T13:05:47;98009.38;;;28.54;55.94
34482;BME280;20720;48.886;9.388;2023-07-31T13:08:12;98013.38;;;27.54;57.25